createdAt,value
2022-08-04T00:00:45.427Z,100992.63
2022-08-04T00:03:20.780Z,100987.34
2022-08-04T00:06:00.758Z,101005.94
2022-08-04T00:08:40.649Z,100994.41
2022-08-04T00:11:15.368Z,101000.63
2022-08-04T00:13:58.034Z,101005.97
2022-08-04T00:16:37.800Z,101006.00
2022-08-04T00:19:11.505Z,101005.16
2022-08-04T00:21:47.730Z,100997.22
2022-08-04T00:24:17.398Z,101004.25
2022-08-04T00:26:45.990Z,100999.84
2022-08-04T00:29:14.113Z,101012.31
2022-08-04T00:31:57.201Z,100995.53
2022-08-04T00:34:27.903Z,101015.03
2022-08-04T00:36:58.384Z,101019.50
2022-08-04T00:39:27.560Z,100999.19
2022-08-04T00:42:24.337Z,101018.66
2022-08-04T00:45:08.745Z,101023.16
2022-08-04T00:47:49.102Z,100998.38
2022-08-04T00:50:26.038Z,101010.78
2022-08-04T00:53:07.814Z,101009.88
2022-08-04T00:55:58.903Z,100997.53
2022-08-04T00:58:40.799Z,101009.06
2022-08-04T01:01:17.874Z,101009.06
2022-08-04T01:04:04.121Z,101002.88
2022-08-04T01:06:56.511Z,100987.78
2022-08-04T01:09:45.514Z,101004.66
2022-08-04T01:12:37.953Z,100987.88
2022-08-04T01:15:08.149Z,101004.69
2022-08-04T01:17:48.597Z,101001.19
2022-08-04T01:20:22.486Z,101000.31
2022-08-04T01:23:46.840Z,101000.31
2022-08-04T01:26:57.601Z,100998.59
2022-08-04T01:29:38.247Z,100988.91
2022-08-04T01:32:26.096Z,101007.44
2022-08-04T01:35:01.949Z,101006.56
2022-08-04T01:37:43.585Z,101012.78
2022-08-04T01:40:15.459Z,100994.22
2022-08-04T01:42:46.170Z,101003.91
2022-08-04T01:45:15.928Z,101003.00
2022-08-04T01:47:50.849Z,101003.03
2022-08-04T01:50:19.070Z,100950.94
2022-08-04T01:52:50.979Z,101005.66
2022-08-04T01:55:19.906Z,101011.00
2022-08-04T01:57:50.907Z,101011.91
2022-08-04T02:00:22.726Z,100968.59
2022-08-04T02:02:52.053Z,101002.19
2022-08-04T02:05:22.044Z,101003.03
2022-08-04T02:08:06.373Z,101009.25
2022-08-04T02:10:50.130Z,101002.19
2022-08-04T02:13:24.818Z,100953.63
2022-08-04T02:16:02.767Z,101008.41
2022-08-04T02:18:33.575Z,101000.44
2022-08-04T02:21:02.911Z,100981.91
2022-08-04T02:23:36.188Z,100949.25
2022-08-04T02:26:06.557Z,100986.34
2022-08-04T02:28:44.562Z,101001.38
2022-08-04T02:31:28.824Z,101007.59
2022-08-04T02:34:07.433Z,101002.31
2022-08-04T02:36:38.274Z,100998.75
2022-08-04T02:39:07.816Z,101006.75
2022-08-04T02:41:37.187Z,101010.31
2022-08-04T02:44:07.516Z,100995.28
2022-08-04T02:46:39.402Z,101004.09
2022-08-04T02:49:09.394Z,100992.59
2022-08-04T02:51:39.223Z,101004.06
2022-08-04T02:54:08.533Z,101007.63
2022-08-04T02:56:38.921Z,101009.38
2022-08-04T02:59:10.502Z,101014.72
2022-08-04T03:01:58.062Z,101001.41
2022-08-04T03:04:52.152Z,101019.13
2022-08-04T03:07:57.327Z,101013.78
2022-08-04T03:11:18.000Z,101013.78
2022-08-04T03:14:22.389Z,101006.72
2022-08-04T03:17:17.796Z,101019.97
2022-08-04T03:20:09.977Z,101022.63
2022-08-04T03:23:13.417Z,101023.47
2022-08-04T03:26:13.497Z,101023.47
2022-08-04T03:29:12.229Z,101019.88
2022-08-04T03:32:13.861Z,101018.94
2022-08-04T03:34:59.377Z,101024.22
2022-08-04T03:37:48.058Z,101025.94
2022-08-04T03:40:35.728Z,101025.91
2022-08-04T03:43:58.366Z,101034.78
2022-08-04T03:47:13.341Z,101027.59
2022-08-04T03:50:10.971Z,101037.28
2022-08-04T03:53:10.537Z,101031.91
2022-08-04T03:55:49.963Z,101038.09
2022-08-04T03:58:41.005Z,101038.09
2022-08-04T04:01:22.310Z,101045.22
2022-08-04T04:04:16.063Z,101032.84
2022-08-04T04:07:06.782Z,101046.09
2022-08-04T04:10:06.377Z,101048.78
2022-08-04T04:13:11.061Z,101055.84
2022-08-04T04:16:00.400Z,101054.00
2022-08-04T04:18:59.983Z,101053.09
2022-08-04T04:21:50.463Z,101060.19
2022-08-04T04:24:34.569Z,101062.84
2022-08-04T04:27:16.900Z,101059.28
2022-08-04T04:30:04.184Z,101064.56
2022-08-04T04:32:45.482Z,101065.34
2022-08-04T04:35:24.150Z,101058.19
2022-08-04T04:38:14.553Z,101067.06
2022-08-04T04:40:57.089Z,101068.84
2022-08-04T04:43:52.034Z,101067.91
2022-08-04T04:46:33.750Z,101073.25
2022-08-04T04:49:12.689Z,101059.94
2022-08-04T04:51:49.548Z,101062.56
2022-08-04T04:54:27.432Z,101040.47
2022-08-04T04:57:04.545Z,101073.28
2022-08-04T04:59:35.902Z,101079.56
2022-08-04T05:02:29.217Z,101083.16
2022-08-04T05:05:24.222Z,101051.34
2022-08-04T05:08:45.467Z,101082.16
2022-08-04T05:11:35.169Z,101090.09
2022-08-04T05:14:39.070Z,101066.22
2022-08-04T05:17:03.060Z,101077.66
2022-08-04T05:19:44.235Z,101090.06
2022-08-04T05:22:23.563Z,101090.09
2022-08-04T05:25:01.731Z,101086.59
2022-08-04T05:27:40.033Z,101096.41
2022-08-04T05:30:09.997Z,101100.84
2022-08-04T05:32:46.993Z,101101.75
2022-08-04T05:35:37.318Z,101108.88
2022-08-04T05:38:15.655Z,101096.50
2022-08-04T05:40:45.655Z,101099.09
2022-08-04T05:43:16.092Z,101050.59
2022-08-04T05:45:48.374Z,101105.22
2022-08-04T05:48:17.726Z,101109.56
2022-08-04T05:50:47.426Z,101108.56
2022-08-04T05:53:19.148Z,101096.06
2022-08-04T05:55:59.578Z,101105.72
2022-08-04T05:58:30.610Z,101102.97
2022-08-04T06:01:00.785Z,101110.94
2022-08-04T06:03:30.917Z,101103.84
2022-08-04T06:06:00.003Z,101057.91
2022-08-04T06:08:30.728Z,101082.56
2022-08-04T06:11:03.468Z,101110.78
2022-08-04T06:13:48.574Z,101094.00
2022-08-04T06:16:29.666Z,101070.25
2022-08-04T06:20:03.493Z,101078.22
2022-08-04T06:21:51.870Z,101099.34
2022-08-04T06:24:26.050Z,101101.09
2022-08-04T06:26:55.122Z,101101.91
2022-08-04T06:29:28.409Z,101099.06
2022-08-04T06:32:29.912Z,101093.59
2022-08-04T06:34:53.359Z,101090.81
2022-08-04T06:37:41.000Z,101041.19
2022-08-04T06:40:29.538Z,101085.06
2022-08-04T06:42:59.900Z,101087.69
2022-08-04T06:45:28.454Z,101093.81
2022-08-04T06:47:58.156Z,101105.25
2022-08-04T06:51:24.503Z,101107.84
2022-08-04T06:53:15.320Z,101062.63
2022-08-04T06:55:47.683Z,101114.56
2022-08-04T06:58:17.527Z,101115.38
2022-08-04T07:00:48.197Z,101123.22
2022-08-04T07:03:19.367Z,101116.13
2022-08-04T07:05:48.630Z,101103.09
2022-08-04T07:08:17.035Z,101117.22
2022-08-04T07:10:47.047Z,101106.59
2022-08-04T07:13:16.889Z,101120.91
2022-08-04T07:15:46.636Z,101098.94
2022-08-04T07:18:14.916Z,101116.78
2022-08-04T07:20:44.518Z,101114.03
2022-08-04T07:23:17.460Z,101097.72
2022-08-04T07:25:59.911Z,101099.09
2022-08-04T07:28:40.957Z,101096.06
2022-08-04T07:31:31.902Z,101107.50
2022-08-04T07:34:21.334Z,101110.03
2022-08-04T07:36:53.266Z,101085.19
2022-08-04T07:39:28.516Z,101086.50
2022-08-04T07:42:01.492Z,101108.22
2022-08-04T07:44:31.208Z,101096.56
2022-08-04T07:47:00.121Z,101103.44
2022-08-04T07:49:55.964Z,101093.44
2022-08-04T07:52:17.706Z,101090.34
2022-08-04T07:54:46.369Z,101109.31
2022-08-04T07:57:20.974Z,101111.16
2022-08-04T08:00:08.804Z,101098.63
2022-08-04T08:02:38.870Z,101100.66
2022-08-04T08:05:09.021Z,101104.31
2022-08-04T08:07:37.176Z,101113.63
2022-08-04T08:10:19.930Z,101117.03
2022-08-04T08:12:52.140Z,101126.22
2022-08-04T08:15:21.716Z,101122.59
2022-08-04T08:17:59.164Z,101123.72
2022-08-04T08:20:30.733Z,101131.94
2022-08-04T08:22:59.187Z,101112.72
2022-08-04T08:25:27.283Z,101122.72
2022-08-04T08:27:56.945Z,101130.22
2022-08-04T08:30:31.857Z,101126.47
2022-08-04T08:33:03.779Z,101112.81
2022-08-04T08:35:54.127Z,101129.78
2022-08-04T08:38:39.980Z,101117.81
2022-08-04T08:41:34.926Z,101126.75
2022-08-04T08:44:51.407Z,101130.25
2022-08-04T08:48:06.291Z,101130.84
2022-08-04T08:50:45.426Z,101124.94
2022-08-04T08:53:29.019Z,101132.06
2022-08-04T08:56:15.128Z,101121.72
2022-08-04T08:59:00.781Z,101120.38
2022-08-04T09:01:54.272Z,101121.78
2022-08-04T09:04:57.126Z,101121.19
2022-08-04T09:07:51.548Z,101123.78
2022-08-04T09:10:27.154Z,101126.41
2022-08-04T09:13:03.708Z,101081.25
2022-08-04T09:15:37.457Z,101127.69
2022-08-04T09:18:14.775Z,101129.56
2022-08-04T09:20:49.909Z,101129.91
2022-08-04T09:23:25.351Z,101129.56
2022-08-04T09:26:07.449Z,101128.13
2022-08-04T09:28:54.631Z,101131.19
2022-08-04T09:31:51.700Z,101141.06
2022-08-04T09:34:27.969Z,101131.72
2022-08-04T09:37:06.017Z,101130.84
2022-08-04T09:39:41.402Z,101138.91
2022-08-04T09:42:26.176Z,101129.00
2022-08-04T09:45:06.166Z,101117.78
2022-08-04T09:47:48.766Z,101113.75
2022-08-04T09:50:31.171Z,101140.28
2022-08-04T09:53:14.488Z,101138.53
2022-08-04T09:55:56.355Z,101128.19
2022-08-04T09:58:40.209Z,101135.13
2022-08-04T10:01:11.440Z,101125.13
2022-08-04T10:03:42.767Z,101131.94
2022-08-04T10:06:36.986Z,101136.97
2022-08-04T10:09:18.356Z,101130.69
2022-08-04T10:11:56.953Z,101132.25
2022-08-04T10:14:41.754Z,101127.25
2022-08-04T10:17:24.385Z,101124.59
2022-08-04T10:20:04.504Z,101131.69
2022-08-04T10:22:55.941Z,101123.41
2022-08-04T10:26:05.212Z,101112.16
2022-08-04T10:28:33.523Z,101138.88
2022-08-04T10:31:08.171Z,101137.94
2022-08-04T10:33:43.985Z,101130.81
2022-08-04T10:36:17.544Z,101144.00
2022-08-04T10:38:57.604Z,101138.16
2022-08-04T10:41:31.602Z,101134.19
2022-08-04T10:44:10.436Z,101124.88
2022-08-04T10:46:44.488Z,101134.06
2022-08-04T10:49:24.164Z,101141.28
2022-08-04T10:51:57.777Z,101117.63
2022-08-04T10:54:34.576Z,101138.53
2022-08-04T10:57:08.706Z,101101.00
2022-08-04T10:59:44.687Z,101139.94
2022-08-04T11:02:27.226Z,101121.72
2022-08-04T11:05:18.142Z,101140.22
2022-08-04T11:07:51.611Z,101167.78
2022-08-04T11:10:25.733Z,101144.38
2022-08-04T11:12:59.052Z,101148.25
2022-08-04T11:15:32.040Z,101158.59
2022-08-04T11:18:06.873Z,101153.69
2022-08-04T11:20:53.791Z,101173.50
2022-08-04T11:23:28.066Z,101143.47
2022-08-04T11:26:02.969Z,101155.44
2022-08-04T11:28:44.968Z,101167.22
2022-08-04T11:31:19.305Z,101166.22
2022-08-04T11:33:56.581Z,101163.50
2022-08-04T11:36:33.570Z,101169.69
2022-08-04T11:39:08.436Z,101157.88
2022-08-04T11:41:48.282Z,101142.84
2022-08-04T11:44:27.647Z,101169.53
2022-08-04T11:47:00.626Z,101166.78
2022-08-04T11:49:57.082Z,101156.34
2022-08-04T11:52:25.397Z,101151.41
2022-08-04T11:54:54.683Z,101155.25
2022-08-04T11:57:35.483Z,101133.38
2022-08-04T12:00:10.368Z,101163.03
2022-08-04T12:02:52.070Z,101149.31
2022-08-04T12:05:36.036Z,101147.00
2022-08-04T12:08:21.145Z,101159.56
2022-08-04T12:11:10.595Z,101151.81
2022-08-04T12:13:47.310Z,101150.41
2022-08-04T12:16:19.451Z,101149.28
2022-08-04T12:18:53.782Z,101141.91
2022-08-04T12:21:29.324Z,101129.47
2022-08-04T12:24:02.917Z,101147.16
2022-08-04T12:26:38.602Z,101147.41
2022-08-04T12:29:11.874Z,101155.69
2022-08-04T12:31:46.690Z,101148.72
2022-08-04T12:34:18.704Z,101149.72
2022-08-04T12:36:55.754Z,101153.13
2022-08-04T12:39:27.362Z,101150.84
2022-08-04T12:42:02.974Z,101146.13
2022-08-04T12:44:38.511Z,101137.88
2022-08-04T12:47:27.131Z,101124.44
2022-08-04T12:50:02.030Z,101135.31
2022-08-04T12:52:59.081Z,101138.78
2022-08-04T12:55:22.235Z,101132.91
2022-08-04T12:57:52.349Z,101125.63
2022-08-04T13:00:34.213Z,101136.06
2022-08-04T13:03:10.074Z,101129.28
2022-08-04T13:05:40.099Z,101128.88
2022-08-04T13:08:09.795Z,101149.63
2022-08-04T13:10:40.792Z,101140.84
2022-08-04T13:13:16.714Z,101117.56
2022-08-04T13:15:57.773Z,101124.78
2022-08-04T13:18:30.367Z,101125.59
2022-08-04T13:21:19.645Z,101116.13
2022-08-04T13:24:09.950Z,101112.97
2022-08-04T13:26:55.168Z,101100.16
2022-08-04T13:29:59.004Z,101104.19
2022-08-04T13:32:26.500Z,101105.16
2022-08-04T13:34:57.150Z,101100.91
2022-08-04T13:37:27.895Z,101106.56
2022-08-04T13:39:57.283Z,101100.06
2022-08-04T13:42:28.365Z,101099.63
2022-08-04T13:45:00.615Z,101105.88
2022-08-04T13:47:33.608Z,101096.88
2022-08-04T13:50:16.461Z,101093.06
2022-08-04T13:52:45.917Z,101081.56
2022-08-04T13:55:23.578Z,101083.19
2022-08-04T13:57:56.033Z,101003.84
2022-08-04T14:00:29.746Z,101085.91
2022-08-04T14:03:23.244Z,101089.84
2022-08-04T14:06:10.869Z,101082.25
2022-08-04T14:08:48.088Z,101086.00
2022-08-04T14:12:10.044Z,101083.81
2022-08-04T14:14:15.418Z,101075.63
2022-08-04T14:16:57.453Z,101088.53
2022-08-04T14:19:31.070Z,101081.28
2022-08-04T14:22:04.901Z,101084.56
2022-08-04T14:24:33.321Z,101091.59
2022-08-04T14:27:01.743Z,101089.53
2022-08-04T14:29:38.792Z,101078.44
2022-08-04T14:32:14.106Z,101074.34
2022-08-04T14:34:46.245Z,101080.44
2022-08-04T14:37:19.436Z,101077.00
2022-08-04T14:40:19.113Z,101069.16
2022-08-04T14:42:55.711Z,101068.06
2022-08-04T14:45:35.916Z,101072.34
2022-08-04T14:48:08.131Z,101064.22
2022-08-04T14:50:40.116Z,101063.69
2022-08-04T14:53:11.086Z,101064.75
2022-08-04T14:55:41.196Z,101074.16
2022-08-04T14:58:36.458Z,101073.25
2022-08-04T15:01:09.710Z,101057.78
2022-08-04T15:03:49.569Z,101053.56
2022-08-04T15:06:23.198Z,101057.25
2022-08-04T15:08:52.977Z,101053.13
2022-08-04T15:11:23.604Z,101056.78
2022-08-04T15:13:52.350Z,101065.47
2022-08-04T15:16:20.665Z,101065.78
2022-08-04T15:18:49.431Z,101072.00
2022-08-04T15:21:18.262Z,101063.28
2022-08-04T15:23:47.676Z,101009.25
2022-08-04T15:26:18.617Z,101051.72
2022-08-04T15:28:51.597Z,101053.03
2022-08-04T15:32:07.281Z,101049.88
2022-08-04T15:34:11.488Z,101042.72
2022-08-04T15:36:56.363Z,101013.09
2022-08-04T15:39:37.061Z,101045.22
2022-08-04T15:42:21.605Z,101031.31
2022-08-04T15:45:20.787Z,101035.41
2022-08-04T15:48:26.200Z,101026.50
2022-08-04T15:51:28.332Z,101032.38
2022-08-04T15:54:32.189Z,101016.38
2022-08-04T15:57:03.769Z,100979.88
2022-08-04T16:00:15.103Z,101018.28
2022-08-04T16:02:44.471Z,101029.75
2022-08-04T16:05:36.920Z,101031.63
2022-08-04T16:08:13.421Z,101020.38
2022-08-04T16:10:43.302Z,101037.22
2022-08-04T16:13:15.086Z,101039.75
2022-08-04T16:15:47.168Z,101037.78
2022-08-04T16:18:26.123Z,101039.44
2022-08-04T16:20:58.125Z,101047.66
2022-08-04T16:24:02.199Z,101046.72
2022-08-04T16:26:55.157Z,101039.34
2022-08-04T16:29:40.261Z,101051.94
2022-08-04T16:32:13.805Z,101036.25
2022-08-04T16:34:49.465Z,101036.16
2022-08-04T16:37:24.046Z,101035.56
2022-08-04T16:40:28.610Z,101000.91
2022-08-04T16:43:04.132Z,100990.97
2022-08-04T16:45:51.197Z,101022.63
2022-08-04T16:48:20.510Z,101024.28
2022-08-04T16:51:04.660Z,101035.16
2022-08-04T16:53:53.650Z,101036.28
2022-08-04T16:56:32.936Z,101022.22
2022-08-04T16:59:07.719Z,101013.06
2022-08-04T17:01:38.226Z,101013.63
2022-08-04T17:04:07.363Z,101003.34
2022-08-04T17:06:37.692Z,100990.59
2022-08-04T17:09:07.202Z,101011.06
2022-08-04T17:11:35.288Z,101011.00
2022-08-04T17:14:05.776Z,101008.94
2022-08-04T17:16:38.391Z,100992.41
2022-08-04T17:19:24.153Z,100985.81
2022-08-04T17:22:02.184Z,100980.28
2022-08-04T17:24:31.469Z,100976.81
2022-08-04T17:27:00.178Z,100957.38
2022-08-04T17:29:42.209Z,100947.03
2022-08-04T17:32:18.799Z,100980.38
2022-08-04T17:34:50.522Z,100941.16
2022-08-04T17:37:38.181Z,100980.28
2022-08-04T17:40:12.178Z,100922.06
2022-08-04T17:42:42.036Z,100986.50
2022-08-04T17:48:03.573Z,100991.22
2022-08-04T17:50:36.013Z,100998.69
2022-08-04T17:53:11.577Z,101006.84
2022-08-04T17:55:40.971Z,101010.72
2022-08-04T17:58:24.135Z,100996.31
2022-08-04T18:01:23.109Z,101011.63
2022-08-04T18:03:58.254Z,101001.31
2022-08-04T18:06:26.358Z,101001.53
2022-08-04T18:08:58.967Z,101000.69
2022-08-04T18:11:53.674Z,100976.31
2022-08-04T18:14:25.878Z,100993.13
2022-08-04T18:16:56.699Z,100990.72
2022-08-04T18:19:26.142Z,100985.50
2022-08-04T18:22:01.013Z,100974.94
2022-08-04T18:24:34.637Z,100970.72
2022-08-04T18:27:19.310Z,100967.38
2022-08-04T18:30:14.539Z,100975.50
2022-08-04T18:32:36.351Z,100965.81
2022-08-04T18:35:07.251Z,100981.94
2022-08-04T18:38:05.865Z,100978.50
2022-08-04T18:40:30.231Z,100968.81
2022-08-04T18:43:03.651Z,100974.19
2022-08-04T18:48:20.985Z,100960.97
2022-08-04T18:51:09.487Z,100965.53
2022-08-04T18:53:38.617Z,100964.72
2022-08-04T18:56:19.922Z,100966.56
2022-08-04T18:58:57.442Z,100970.22
2022-08-04T19:01:29.613Z,100967.78
2022-08-04T19:03:58.566Z,100980.25
2022-08-04T19:06:28.309Z,100960.63
2022-08-04T19:08:58.047Z,100944.78
2022-08-04T19:11:37.904Z,100957.13
2022-08-04T19:14:14.753Z,100958.09
2022-08-04T19:16:46.135Z,100954.66
2022-08-04T19:19:15.717Z,100945.81
2022-08-04T19:22:00.918Z,100922.09
2022-08-04T19:24:34.326Z,100947.59
2022-08-04T19:29:52.763Z,100950.28
2022-08-04T19:32:22.490Z,100943.25
2022-08-04T19:34:52.139Z,100950.44
2022-08-04T19:37:58.501Z,100927.38
2022-08-04T19:40:12.968Z,100944.31
2022-08-04T19:42:42.473Z,100948.00
2022-08-04T19:45:15.906Z,100937.47
2022-08-04T19:48:18.297Z,100939.28
2022-08-04T19:50:32.346Z,100933.16
2022-08-04T19:53:04.172Z,100901.03
2022-08-04T19:55:49.708Z,100818.88
2022-08-04T19:58:21.521Z,100914.00
2022-08-04T20:00:53.861Z,100917.59
2022-08-04T20:04:08.403Z,100921.03
2022-08-04T20:06:11.792Z,100929.09
2022-08-04T20:08:48.313Z,100863.97
2022-08-04T20:11:17.362Z,100926.53
2022-08-04T20:13:54.630Z,100922.06
2022-08-04T20:16:30.003Z,100927.47
2022-08-04T20:19:03.269Z,100914.13
2022-08-04T20:21:55.641Z,100878.25
2022-08-04T20:24:36.912Z,100919.63
2022-08-04T20:27:21.697Z,100882.94
2022-08-04T20:29:51.689Z,100932.25
2022-08-04T20:32:26.002Z,100919.91
2022-08-04T20:34:55.916Z,100916.41
2022-08-04T20:37:25.975Z,100922.69
2022-08-04T20:40:15.414Z,100943.25
2022-08-04T20:42:44.986Z,100938.00
2022-08-04T20:45:16.241Z,100953.13
2022-08-04T20:47:53.307Z,100942.47
2022-08-04T20:50:29.798Z,100934.47
2022-08-04T20:52:58.708Z,100936.28
2022-08-04T20:55:29.866Z,100908.09
2022-08-04T20:58:02.566Z,100934.63
2022-08-04T21:00:31.929Z,100934.72
2022-08-04T21:03:00.291Z,100908.25
2022-08-04T21:05:28.427Z,101008.88
2022-08-04T21:07:57.626Z,101012.50
2022-08-04T21:10:27.388Z,101023.25
2022-08-04T21:12:55.826Z,101013.53
2022-08-04T21:15:50.839Z,101027.84
2022-08-04T21:18:14.659Z,100993.16
2022-08-04T21:20:48.232Z,101029.72
2022-08-04T21:25:49.846Z,101028.31
2022-08-04T21:31:11.089Z,101011.56
2022-08-04T21:33:52.181Z,101014.25
2022-08-04T21:36:20.718Z,101021.44
2022-08-04T21:38:51.490Z,100995.94
2022-08-04T21:41:25.237Z,101015.41
2022-08-04T21:43:55.739Z,101023.47
2022-08-04T21:46:24.346Z,101027.94
2022-08-04T21:48:52.506Z,101014.66
2022-08-04T21:51:58.011Z,101017.38
2022-08-04T21:54:16.855Z,101043.19
2022-08-04T21:56:50.721Z,101002.47
2022-08-04T21:59:23.774Z,101056.59
2022-08-04T22:01:56.535Z,100990.41
2022-08-04T22:04:24.928Z,101011.66
2022-08-04T22:06:53.043Z,101013.19
2022-08-04T22:09:22.378Z,100938.13
2022-08-04T22:11:52.465Z,101015.06
2022-08-04T22:14:29.427Z,101023.97
2022-08-04T22:17:02.643Z,101024.00
2022-08-04T22:19:50.298Z,101024.00
2022-08-04T22:22:26.274Z,101026.69
2022-08-04T22:24:58.882Z,101035.63
2022-08-04T22:27:47.916Z,101037.41
2022-08-04T22:30:23.952Z,100990.75
2022-08-04T22:32:52.033Z,101049.09
2022-08-04T22:35:42.892Z,101055.38
2022-08-04T22:38:25.306Z,101067.91
2022-08-04T22:40:59.716Z,101062.66
2022-08-04T22:43:33.676Z,101047.69
2022-08-04T22:46:05.383Z,101054.75
2022-08-04T22:48:35.433Z,101045.81
2022-08-04T22:51:03.931Z,101044.88
2022-08-04T22:53:32.489Z,101039.53
2022-08-04T22:56:10.291Z,101030.63
2022-08-04T22:58:45.509Z,101025.31
2022-08-04T23:01:19.412Z,101024.53
2022-08-04T23:03:55.467Z,101028.13
2022-08-04T23:06:25.685Z,101024.63
2022-08-04T23:08:59.447Z,101020.25
2022-08-04T23:11:34.397Z,101004.31
2022-08-04T23:14:05.493Z,101020.25
2022-08-04T23:16:40.814Z,101007.13
2022-08-04T23:19:15.203Z,101025.66
2022-08-04T23:21:47.288Z,101023.09
2022-08-04T23:24:16.001Z,101031.13
2022-08-04T23:26:44.133Z,101026.66
2022-08-04T23:29:13.926Z,101010.69
2022-08-04T23:31:59.099Z,101024.91
2022-08-04T23:34:29.108Z,101006.28
2022-08-04T23:36:59.273Z,101005.41
2022-08-04T23:40:03.756Z,101024.97
2022-08-04T23:42:21.012Z,100976.41
2022-08-04T23:44:50.958Z,100996.66
2022-08-04T23:48:16.563Z,100993.09
2022-08-04T23:50:08.477Z,101001.06
2022-08-04T23:52:37.298Z,101007.28
2022-08-04T23:55:07.598Z,100972.84
2022-08-04T23:58:06.503Z,100971.94
